RJOI/IWA METAR and TAF weather

Enter ICAO airport designator
Station Type Date Time Source
RJOI METAR 2021/09/16 21:56 UTC NOAA

RJOI 162156Z 33004KT 7SM FEW015 SCT080 BKN250 23/21 A2980 RMK AO2 RAB2059E29 SLP092 P0002 T02280206 $


Station Type Date Time Source
RJOI Decoded METAR 2021/09/16 21:56 UTC NOAA

MCAS IWAKUNI,JAPAN, JA, Japan (RJOI) 34-09N 132-14E 5M
Sep 16, 2021 - 05:56 PM EDT / 2021.09.16 2156 UTC
Wind: from the NNW (330 degrees) at 5 MPH (4 KT):0
Visibility: 7 mile(s):0
Sky conditions: mostly cloudy
Precipitation last hour: 0.02 inches
Temperature: 73.0 F (22.8 C)
Dew Point: 69.1 F (20.6 C)
Relative Humidity: 87%
Pressure (altimeter): 29.8 in. Hg (1009 hPa)
ob: RJOI 162156Z 33004KT 7SM FEW015 SCT080 BKN250 23/21 A2980 RMK AO2 RAB2059E29 SLP092 P0002 T02280206
cycle: 22

Station Type Date Time Source
RJOI TAF 2021/09/16 21:12 UTC NOAA

TAF TAF RJOI 1621/1721 VRB05KT 9999 VCSH FEW020 BKN050 OVC080 510006 QNH2972INS
TEMPO 1621/1703 04018G26KT 8000 -SHRA SCT020 BKN030CB
FM170300 07012KT 9999 VCSH FEW030 BKN050 BKN100 611609 612504 510006 QNH2962INS
BECMG 1705/1707 09014G24KT 9000 -SHRA VCTS FEW020 BKN030CB OVC080 651609 612504 540006 QNH2949INS
TEMPO 1707/1713 11027G40KT 4800 TSRA SCT015 BKN025CB OVC050
FM171300 12024G36KT 4800 SHRA VCTS SCT010 BKN030CB OVC040 621809 540006 QNH2948INS
TEMPO 1713/1719 VRB16G22KT SCT008 BKN025CB OVC035
BECMG 1719/1721 30012KT 9999 FEW015 SCT030 BKN050 600000 510006 T22/1621Z T26/1706Z

Example: see airport list